Nago, Japan
Current Conditions -  °F | °C
As of 10:18 PM on Thursday 30 Oct 2014 (Local Time) from RODN Reporting Station
Overcast Overcast  
Wind Chill: 75°   Ceiling: 3000
Heat Index: 75°   Visibility: 10mi
Dew Point: 70°   Wind: 16mph
Humidity: 83%   Direction: 50°NE
Pressure: 30.06"   Gusts: NA
Location:  26.59°N, 127.99°E
Report Text: RODN 301318Z AUTO 05014KT 10SM SCT024 BKN030 OVC046 24/21 A3006 RMK AO2 CIG 023 RWY23 PWINO $
Loading
Personal Weather Stations






























Interactive Weather Map
Tropical Storm Tracking
New forecast layout! Learn more

10-Day Weather Forecast

Advertisements
Track Severe Weather on mobile